createdAt,value
2022-11-08T00:01:17.778Z,101015.80
2022-11-08T00:03:47.526Z,101017.21
2022-11-08T00:06:34.751Z,101022.11
2022-11-08T00:09:22.751Z,101026.82
2022-11-08T00:12:10.392Z,101034.98
2022-11-08T00:14:40.217Z,101034.98
2022-11-08T00:17:10.519Z,101033.67
2022-11-08T00:19:40.334Z,101030.59
2022-11-08T00:22:12.677Z,101038.77
2022-11-08T00:24:42.464Z,101032.25
2022-11-08T00:27:17.768Z,101032.25
2022-11-08T00:29:47.927Z,101036.13
2022-11-08T00:32:20.314Z,101030.53
2022-11-08T00:34:50.596Z,101030.09
2022-11-08T00:37:22.467Z,101025.06
2022-11-08T00:39:52.527Z,101028.69
2022-11-08T00:42:22.025Z,101027.97
2022-11-08T00:44:51.802Z,101026.87
2022-11-08T00:47:21.847Z,101025.88
2022-11-08T00:49:51.336Z,101017.40
2022-11-08T00:52:21.104Z,101014.73
2022-11-08T00:54:50.862Z,101012.08
2022-11-08T00:57:31.008Z,101013.22
2022-11-08T00:59:52.032Z,101012.73
2022-11-08T01:02:21.576Z,101011.45
2022-11-08T01:04:51.366Z,101012.22
2022-11-08T01:07:21.105Z,101009.58
2022-11-08T01:09:50.840Z,101009.58
2022-11-08T01:12:20.872Z,101011.01
2022-11-08T01:14:50.708Z,101009.47
2022-11-08T01:17:20.462Z,101009.47
2022-11-08T01:19:50.263Z,101009.46
2022-11-08T01:22:19.726Z,101010.17
2022-11-08T01:24:49.765Z,101008.17
2022-11-08T01:27:19.519Z,101006.28
2022-11-08T01:29:49.259Z,101005.59
2022-11-08T01:32:19.320Z,101008.48
2022-11-08T01:34:49.087Z,101011.36
2022-11-08T01:37:19.156Z,101012.28
2022-11-08T01:39:48.899Z,101003.16
2022-11-08T01:42:18.639Z,100999.98
2022-11-08T01:45:02.910Z,100990.14
2022-11-08T01:47:32.726Z,100990.14
2022-11-08T01:50:11.867Z,100981.40
2022-11-08T01:52:47.545Z,100992.13
2022-11-08T01:55:22.430Z,100987.09
2022-11-08T01:58:12.861Z,100977.83
2022-11-08T02:00:42.960Z,100977.39
2022-11-08T02:03:15.487Z,100970.55
2022-11-08T02:05:46.582Z,100959.17
2022-11-08T02:08:21.782Z,100955.68
2022-11-08T02:10:53.750Z,100954.80
2022-11-08T02:13:26.282Z,100945.41
2022-11-08T02:15:56.469Z,100947.52
2022-11-08T02:18:29.261Z,100943.34
2022-11-08T02:21:26.009Z,100934.20
2022-11-08T02:23:59.395Z,100929.13
2022-11-08T02:26:36.557Z,100922.16
2022-11-08T02:29:25.979Z,100917.83
2022-11-08T02:31:56.944Z,100919.73
2022-11-08T02:34:29.606Z,100920.86
2022-11-08T02:37:00.725Z,100905.73
2022-11-08T02:39:32.418Z,100903.20
2022-11-08T02:42:02.917Z,100906.19
2022-11-08T02:44:32.648Z,100910.80
2022-11-08T02:47:02.398Z,100900.19
2022-11-08T02:49:32.396Z,100893.86
2022-11-08T02:52:02.158Z,100890.94
2022-11-08T02:54:32.068Z,100904.51
2022-11-08T02:57:01.978Z,100902.55
2022-11-08T02:59:31.761Z,100899.20
2022-11-08T03:02:01.767Z,100880.59
2022-11-08T03:04:31.616Z,100884.30
2022-11-08T03:07:01.691Z,100881.09
2022-11-08T03:09:31.784Z,100881.44
2022-11-08T03:12:01.645Z,100875.48
2022-11-08T03:14:31.116Z,100876.27
2022-11-08T03:17:00.865Z,100873.96
2022-11-08T03:19:30.345Z,100866.39
2022-11-08T03:22:00.140Z,100866.45
2022-11-08T03:24:29.985Z,100863.05
2022-11-08T03:26:59.740Z,100858.62
2022-11-08T03:29:29.808Z,100864.33
2022-11-08T03:31:59.529Z,100851.86
2022-11-08T03:34:29.268Z,100847.37
2022-11-08T03:36:59.006Z,100847.37
2022-11-08T03:39:28.771Z,100838.57
2022-11-08T03:42:00.125Z,100847.30
2022-11-08T03:44:30.382Z,100842.34
2022-11-08T03:47:01.464Z,100831.45
2022-11-08T03:49:31.202Z,100831.34
2022-11-08T03:52:00.661Z,100824.09
2022-11-08T03:54:30.400Z,100817.16
2022-11-08T03:57:00.163Z,100802.64
2022-11-08T03:59:29.893Z,100800.77
2022-11-08T04:01:59.850Z,100791.38
2022-11-08T04:04:29.665Z,100789.30
2022-11-08T04:06:59.231Z,100785.50
2022-11-08T04:09:28.944Z,100782.45
2022-11-08T04:12:16.013Z,100766.36
2022-11-08T04:15:03.556Z,100767.22
2022-11-08T04:17:50.894Z,100760.30
2022-11-08T04:20:38.220Z,100763.54
2022-11-08T04:23:07.951Z,100758.09
2022-11-08T04:25:37.703Z,100755.77
2022-11-08T04:28:09.865Z,100755.77
2022-11-08T04:30:39.603Z,100747.54
2022-11-08T04:33:09.630Z,100736.78
2022-11-08T04:35:39.401Z,100742.65
2022-11-08T04:38:11.297Z,100743.83
2022-11-08T04:40:41.055Z,100751.34
2022-11-08T04:43:10.950Z,100738.67
2022-11-08T04:45:41.246Z,100736.08
2022-11-08T04:48:11.492Z,100731.38
2022-11-08T04:50:41.216Z,100723.38
2022-11-08T04:53:10.947Z,100723.33
2022-11-08T04:55:40.668Z,100718.09
2022-11-08T04:58:11.366Z,100711.19
2022-11-08T05:00:41.430Z,100703.91
2022-11-08T05:03:10.908Z,100714.60
2022-11-08T05:05:40.662Z,100712.77
2022-11-08T05:08:11.317Z,100705.74
2022-11-08T05:10:41.058Z,100698.14
2022-11-08T05:13:10.807Z,100699.62
2022-11-08T05:15:40.553Z,100691.57
2022-11-08T05:18:10.280Z,100687.64
2022-11-08T05:20:58.130Z,100687.08
2022-11-08T05:23:27.932Z,100675.92
2022-11-08T05:25:58.951Z,100671.03
2022-11-08T05:28:28.387Z,100677.17
2022-11-08T05:30:58.680Z,100678.06
2022-11-08T05:33:28.967Z,100683.76
2022-11-08T05:36:04.675Z,100684.45
2022-11-08T05:38:32.465Z,100672.88
2022-11-08T05:41:09.648Z,100672.88
2022-11-08T05:43:39.619Z,100666.99
2022-11-08T05:46:11.119Z,100668.95
2022-11-08T05:48:42.378Z,100663.75
2022-11-08T05:51:13.673Z,100662.78
2022-11-08T05:53:43.390Z,100670.12
2022-11-08T05:56:13.032Z,100659.94
2022-11-08T05:58:42.790Z,100659.59
2022-11-08T06:01:15.180Z,100642.01
2022-11-08T06:03:45.188Z,100634.42
2022-11-08T06:06:19.855Z,100642.48
2022-11-08T06:08:52.426Z,100646.70
2022-11-08T06:11:25.090Z,100645.35
2022-11-08T06:13:56.066Z,100645.95
2022-11-08T06:16:26.249Z,100638.91
2022-11-08T06:18:56.059Z,100651.34
2022-11-08T06:21:27.187Z,100647.70
2022-11-08T06:23:56.958Z,100644.16
2022-11-08T06:26:26.567Z,100644.16
2022-11-08T06:28:56.695Z,100649.39
2022-11-08T06:31:26.689Z,100649.55
2022-11-08T06:33:56.759Z,100650.25
2022-11-08T06:36:26.488Z,100650.25
2022-11-08T06:38:56.786Z,100653.29
2022-11-08T06:41:29.790Z,100645.80
2022-11-08T06:43:59.377Z,100639.32
2022-11-08T06:46:29.151Z,100649.44
2022-11-08T06:48:58.912Z,100648.58
2022-11-08T06:51:28.928Z,100648.58
2022-11-08T06:53:59.234Z,100657.59
2022-11-08T06:56:28.986Z,100640.48
2022-11-08T06:58:58.835Z,100639.02
2022-11-08T07:01:28.447Z,100639.02
2022-11-08T07:03:58.202Z,100628.83
2022-11-08T07:06:27.916Z,100634.43
2022-11-08T07:08:57.695Z,100635.38
2022-11-08T07:11:27.451Z,100641.83
2022-11-08T07:13:57.182Z,100647.97
2022-11-08T07:16:26.623Z,100649.12
2022-11-08T07:18:56.363Z,100633.66
2022-11-08T07:21:26.070Z,100648.84
2022-11-08T07:23:56.131Z,100647.35
2022-11-08T07:26:25.708Z,100657.06
2022-11-08T07:28:55.438Z,100643.56
2022-11-08T07:31:25.799Z,100640.98
2022-11-08T07:33:55.527Z,100629.70
2022-11-08T07:36:24.971Z,100629.70
2022-11-08T07:38:54.791Z,100652.95
2022-11-08T07:41:24.531Z,100656.41
2022-11-08T07:43:54.277Z,100641.13
2022-11-08T07:46:24.077Z,100648.33
2022-11-08T07:48:54.116Z,100633.04
2022-11-08T07:51:23.620Z,100633.04
2022-11-08T07:53:53.353Z,100652.75
2022-11-08T07:56:26.654Z,100634.04
2022-11-08T07:58:56.364Z,100634.64
2022-11-08T08:01:26.202Z,100635.62
2022-11-08T08:03:56.008Z,100638.64
2022-11-08T08:06:26.261Z,100625.69
2022-11-08T08:08:55.992Z,100614.54
2022-11-08T08:11:30.848Z,100615.55
2022-11-08T08:13:57.173Z,100619.13
2022-11-08T08:16:26.610Z,100615.63
2022-11-08T08:18:56.967Z,100620.87
2022-11-08T08:21:26.741Z,100626.55
2022-11-08T08:23:56.467Z,100632.63
2022-11-08T08:26:26.204Z,100633.32
2022-11-08T08:28:55.968Z,100633.32
2022-11-08T08:31:25.761Z,100626.75
2022-11-08T08:33:55.534Z,100631.16
2022-11-08T08:36:25.276Z,100619.67
2022-11-08T08:38:54.785Z,100627.19
2022-11-08T08:41:24.533Z,100621.48
2022-11-08T08:43:54.267Z,100638.98
2022-11-08T08:46:24.008Z,100641.82
2022-11-08T08:48:53.741Z,100648.04
2022-11-08T08:51:23.572Z,100646.13
2022-11-08T08:53:53.293Z,100642.72
2022-11-08T08:56:22.989Z,100655.89
2022-11-08T09:01:39.522Z,100653.13
2022-11-08T09:03:55.585Z,100653.13
2022-11-08T09:06:25.445Z,100646.12
2022-11-08T09:08:55.152Z,100648.88
2022-11-08T09:11:24.898Z,100644.45
2022-11-08T09:13:54.329Z,100633.48
2022-11-08T09:16:24.218Z,100624.81
2022-11-08T09:18:54.031Z,100609.50
2022-11-08T09:21:24.103Z,100621.58
2022-11-08T09:23:53.897Z,100624.31
2022-11-08T09:26:23.342Z,100621.95
2022-11-08T09:28:53.060Z,100628.70
2022-11-08T09:31:22.790Z,100605.44
2022-11-08T09:33:52.869Z,100605.44
2022-11-08T09:36:22.631Z,100608.91
2022-11-08T09:38:52.366Z,100608.91
2022-11-08T09:41:30.479Z,100608.61
2022-11-08T09:44:23.962Z,100638.13
2022-11-08T09:46:59.547Z,100611.69
2022-11-08T09:49:34.685Z,100616.47
2022-11-08T09:52:06.880Z,100616.98
2022-11-08T09:54:44.984Z,100622.13
2022-11-08T09:57:29.580Z,100621.13
2022-11-08T10:00:05.021Z,100609.00
2022-11-08T10:02:37.598Z,100612.94
2022-11-08T10:05:11.063Z,100610.19
2022-11-08T10:08:00.669Z,100610.09
2022-11-08T10:10:33.306Z,100620.48
2022-11-08T10:13:23.712Z,100612.92
2022-11-08T10:16:11.400Z,100616.37
2022-11-08T10:19:00.582Z,100628.47
2022-11-08T10:21:58.724Z,100626.31
2022-11-08T10:24:37.381Z,100614.16
2022-11-08T10:27:19.057Z,100614.16
2022-11-08T10:29:51.875Z,100622.05
2022-11-08T10:32:25.378Z,100623.48
2022-11-08T10:35:04.355Z,100627.53
2022-11-08T10:37:35.047Z,100623.75
2022-11-08T10:40:34.425Z,100621.92
2022-11-08T10:43:13.334Z,100616.80
2022-11-08T10:45:43.150Z,100616.80
2022-11-08T10:48:16.096Z,100621.30
2022-11-08T10:50:48.884Z,100632.75
2022-11-08T10:53:27.629Z,100626.80
2022-11-08T10:56:04.895Z,100619.89
2022-11-08T10:58:43.788Z,100619.89
2022-11-08T11:01:19.110Z,100622.18
2022-11-08T11:03:49.768Z,100625.96
2022-11-08T11:06:30.101Z,100621.64
2022-11-08T11:09:05.953Z,100619.77
2022-11-08T11:11:38.504Z,100629.42
2022-11-08T11:14:22.888Z,100619.42
2022-11-08T11:16:58.465Z,100615.23
2022-11-08T11:19:29.493Z,100614.33
2022-11-08T11:22:09.737Z,100619.11
2022-11-08T11:24:51.083Z,100613.50
2022-11-08T11:27:29.506Z,100617.19
2022-11-08T11:30:22.897Z,100611.83
2022-11-08T11:33:20.224Z,100595.80
2022-11-08T11:35:50.464Z,100587.48
2022-11-08T11:38:39.217Z,100597.99
2022-11-08T11:41:12.074Z,100597.90
2022-11-08T11:43:47.307Z,100585.56
2022-11-08T11:46:25.411Z,100575.00
2022-11-08T11:49:02.943Z,100573.58
2022-11-08T11:51:32.766Z,100557.95
2022-11-08T11:54:05.891Z,100556.25
2022-11-08T11:59:51.575Z,100565.19
2022-11-08T12:02:41.758Z,100576.34
2022-11-08T12:05:31.553Z,100569.33
2022-11-08T12:08:07.230Z,100563.67
2022-11-08T12:10:49.790Z,100559.00
2022-11-08T12:13:28.587Z,100555.46
2022-11-08T12:16:19.161Z,100544.23
2022-11-08T12:19:17.435Z,100550.00
2022-11-08T12:21:55.692Z,100555.41
2022-11-08T12:24:52.192Z,100547.61
2022-11-08T12:27:36.653Z,100553.10
2022-11-08T12:30:14.944Z,100550.00
2022-11-08T12:33:05.625Z,100553.20
2022-11-08T12:35:47.083Z,100545.52
2022-11-08T12:38:35.077Z,100538.41
2022-11-08T12:41:13.504Z,100540.16
2022-11-08T12:43:49.186Z,100549.09
2022-11-08T12:46:19.910Z,100559.98
2022-11-08T12:49:03.918Z,100560.56
2022-11-08T12:51:52.466Z,100560.59
2022-11-08T12:54:28.042Z,100552.91
2022-11-08T12:57:00.820Z,100544.94
2022-11-08T12:59:39.094Z,100538.00
2022-11-08T13:02:17.021Z,100538.00
2022-11-08T13:04:50.184Z,100522.00
2022-11-08T13:07:44.799Z,100520.02
2022-11-08T13:10:52.788Z,100525.04
2022-11-08T13:13:53.381Z,100513.86
2022-11-08T13:16:25.884Z,100504.91
2022-11-08T13:18:58.260Z,100502.61
2022-11-08T13:21:31.058Z,100512.39
2022-11-08T13:24:38.368Z,100516.27
2022-11-08T13:26:43.383Z,100513.34
2022-11-08T13:29:21.710Z,100521.42
2022-11-08T13:32:03.229Z,100527.59
2022-11-08T13:34:38.663Z,100516.19
2022-11-08T13:37:30.170Z,100518.05
2022-11-08T13:40:20.661Z,100499.81
2022-11-08T13:42:59.113Z,100511.16
2022-11-08T13:45:31.881Z,100507.41
2022-11-08T13:48:04.500Z,100509.38
2022-11-08T13:50:48.113Z,100509.55
2022-11-08T13:53:23.817Z,100519.38
2022-11-08T13:58:38.208Z,100502.49
2022-11-08T14:01:25.527Z,100502.49
2022-11-08T14:03:57.347Z,100513.05
2022-11-08T14:06:36.224Z,100516.87
2022-11-08T14:09:25.360Z,100514.14
2022-11-08T14:12:07.489Z,100514.14
2022-11-08T14:14:54.927Z,100511.09
2022-11-08T14:17:36.326Z,100523.08
2022-11-08T14:20:22.838Z,100524.30
2022-11-08T14:22:52.952Z,100529.20
2022-11-08T14:25:34.847Z,100519.55
2022-11-08T14:28:08.773Z,100524.15
2022-11-08T14:30:38.511Z,100516.27
2022-11-08T14:33:20.092Z,100503.32
2022-11-08T14:35:58.652Z,100502.98
2022-11-08T14:38:33.930Z,100513.60
2022-11-08T14:41:06.302Z,100504.36
2022-11-08T14:43:39.091Z,100496.64
2022-11-08T14:46:15.124Z,100503.94
2022-11-08T14:48:55.093Z,100499.34
2022-11-08T14:51:26.076Z,100496.79
2022-11-08T14:53:56.789Z,100502.50
2022-11-08T14:56:28.784Z,100501.37
2022-11-08T14:58:58.524Z,100505.48
2022-11-08T15:01:30.278Z,100501.72
2022-11-08T15:04:09.087Z,100512.19
2022-11-08T15:06:44.694Z,100517.45
2022-11-08T15:09:23.112Z,100516.52
2022-11-08T15:11:55.884Z,100513.61
2022-11-08T15:14:28.128Z,100512.08
2022-11-08T15:17:03.161Z,100518.92
2022-11-08T15:19:42.463Z,100517.51
2022-11-08T15:22:33.294Z,100513.06
2022-11-08T15:25:17.397Z,100518.22
2022-11-08T15:27:51.623Z,100505.80
2022-11-08T15:30:24.295Z,100510.28
2022-11-08T15:32:54.346Z,100510.83
2022-11-08T15:35:38.348Z,100504.14
2022-11-08T15:38:30.265Z,100497.33
2022-11-08T15:41:03.410Z,100508.05
2022-11-08T15:43:38.029Z,100497.10
2022-11-08T15:46:12.053Z,100490.63
2022-11-08T15:48:41.793Z,100489.52
2022-11-08T15:51:11.540Z,100483.98
2022-11-08T15:53:41.833Z,100491.41
2022-11-08T15:56:14.033Z,100482.52
2022-11-08T15:58:44.059Z,100471.63
2022-11-08T16:01:19.876Z,100475.56
2022-11-08T16:03:49.326Z,100468.40
2022-11-08T16:06:18.933Z,100471.50
2022-11-08T16:08:48.655Z,100479.47
2022-11-08T16:11:23.769Z,100470.80
2022-11-08T16:13:53.568Z,100469.39
2022-11-08T16:16:22.982Z,100468.67
2022-11-08T16:18:53.016Z,100468.67
2022-11-08T16:21:22.813Z,100461.87
2022-11-08T16:23:52.834Z,100461.87
2022-11-08T16:26:22.347Z,100472.56
2022-11-08T16:28:52.376Z,100479.36
2022-11-08T16:31:22.269Z,100454.64
2022-11-08T16:33:53.991Z,100462.36
2022-11-08T16:36:26.664Z,100462.36
2022-11-08T16:38:59.169Z,100484.42
2022-11-08T16:41:28.893Z,100477.33
2022-11-08T16:44:00.158Z,100482.36
2022-11-08T16:46:30.318Z,100482.36
2022-11-08T16:49:00.670Z,100482.80
2022-11-08T16:51:30.603Z,100491.80
2022-11-08T16:54:02.849Z,100494.08
2022-11-08T16:56:32.584Z,100494.08
2022-11-08T16:59:02.325Z,100495.09
2022-11-08T17:01:34.451Z,100503.58
2022-11-08T17:04:04.671Z,100497.62
2022-11-08T17:06:34.159Z,100498.13
2022-11-08T17:09:04.068Z,100489.67
2022-11-08T17:11:33.858Z,100492.62
2022-11-08T17:14:03.324Z,100491.87
2022-11-08T17:16:33.058Z,100494.55
2022-11-08T17:19:04.644Z,100493.50
2022-11-08T17:21:50.077Z,100488.52
2022-11-08T17:24:07.384Z,100488.52
2022-11-08T17:26:37.195Z,100498.31
2022-11-08T17:29:08.018Z,100493.33
2022-11-08T17:31:38.116Z,100498.06
2022-11-08T17:34:11.030Z,100491.33
2022-11-08T17:36:40.860Z,100496.22
2022-11-08T17:39:12.251Z,100489.95
2022-11-08T17:41:41.968Z,100487.89
2022-11-08T17:44:14.544Z,100490.97
2022-11-08T17:46:44.282Z,100485.04
2022-11-08T17:49:14.185Z,100483.55
2022-11-08T17:51:43.936Z,100480.77
2022-11-08T17:54:15.570Z,100484.44
2022-11-08T17:56:45.307Z,100472.77
2022-11-08T17:59:15.706Z,100473.25
2022-11-08T18:01:46.405Z,100476.41
2022-11-08T18:04:15.879Z,100482.41
2022-11-08T18:06:45.954Z,100480.05
2022-11-08T18:09:15.689Z,100485.84
2022-11-08T18:11:47.095Z,100484.13
2022-11-08T18:14:18.798Z,100489.96
2022-11-08T18:16:49.287Z,100482.76
2022-11-08T18:19:22.227Z,100486.99
2022-11-08T18:21:52.029Z,100482.39
2022-11-08T18:24:22.293Z,100494.37
2022-11-08T18:26:52.112Z,100488.00
2022-11-08T18:29:22.165Z,100486.71
2022-11-08T18:31:51.925Z,100488.25
2022-11-08T18:34:21.666Z,100485.75
2022-11-08T18:36:51.396Z,100489.17
2022-11-08T18:39:21.432Z,100488.50
2022-11-08T18:41:51.251Z,100491.63
2022-11-08T18:44:21.039Z,100487.58
2022-11-08T18:46:50.807Z,100496.58
2022-11-08T18:49:20.919Z,100496.98
2022-11-08T18:51:52.627Z,100496.98
2022-11-08T18:54:22.636Z,100493.41
2022-11-08T18:56:52.416Z,100493.91
2022-11-08T18:59:22.630Z,100493.91
2022-11-08T19:01:52.398Z,100499.94
2022-11-08T19:04:22.931Z,100510.74
2022-11-08T19:06:54.792Z,100504.39
2022-11-08T19:09:24.423Z,100507.09
2022-11-08T19:11:54.152Z,100504.77
2022-11-08T19:14:24.014Z,100499.53
2022-11-08T19:16:55.385Z,100505.73
2022-11-08T19:19:25.507Z,100511.34
2022-11-08T19:21:55.281Z,100502.73
2022-11-08T19:24:24.989Z,100504.73
2022-11-08T19:26:55.023Z,100506.03
2022-11-08T19:29:24.800Z,100508.06
2022-11-08T19:31:54.538Z,100504.28
2022-11-08T19:34:24.281Z,100504.11
2022-11-08T19:36:56.062Z,100496.36
2022-11-08T19:39:25.521Z,100494.49
2022-11-08T19:41:54.946Z,100494.49
2022-11-08T19:44:24.811Z,100492.03
2022-11-08T19:46:54.566Z,100491.05
2022-11-08T19:49:25.724Z,100489.71
2022-11-08T19:51:55.460Z,100486.40
2022-11-08T19:54:25.182Z,100492.62
2022-11-08T19:57:10.268Z,100492.73
2022-11-08T19:59:26.395Z,100491.41
2022-11-08T20:01:56.212Z,100492.34
2022-11-08T20:04:26.019Z,100489.08
2022-11-08T20:06:56.096Z,100476.92
2022-11-08T20:09:30.267Z,100476.92
2022-11-08T20:11:57.285Z,100494.35
2022-11-08T20:14:27.323Z,100505.69
2022-11-08T20:16:57.066Z,100483.47
2022-11-08T20:19:26.793Z,100483.47
2022-11-08T20:21:58.400Z,100500.97
2022-11-08T20:24:28.031Z,100506.78
2022-11-08T20:26:57.754Z,100510.25
2022-11-08T20:29:27.567Z,100499.79
2022-11-08T20:31:57.315Z,100510.50
2022-11-08T20:34:27.284Z,100511.33
2022-11-08T20:36:57.162Z,100512.20
2022-11-08T20:39:26.928Z,100517.66
2022-11-08T20:41:56.661Z,100510.98
2022-11-08T20:44:26.391Z,100514.01
2022-11-08T20:46:55.834Z,100511.45
2022-11-08T20:49:25.566Z,100513.29
2022-11-08T20:51:55.291Z,100513.14
2022-11-08T20:54:25.058Z,100520.70
2022-11-08T20:56:54.802Z,100524.19
2022-11-08T20:59:24.532Z,100512.17
2022-11-08T21:01:54.887Z,100520.89
2022-11-08T21:04:24.925Z,100521.91
2022-11-08T21:07:42.581Z,100519.27
2022-11-08T21:09:41.600Z,100520.83
2022-11-08T21:12:00.768Z,100520.83
2022-11-08T21:14:30.580Z,100516.77
2022-11-08T21:17:21.289Z,100515.43
2022-11-08T21:19:32.045Z,100518.83
2022-11-08T21:22:16.900Z,100521.26
2022-11-08T21:24:49.025Z,100520.06
2022-11-08T21:27:18.915Z,100520.06
2022-11-08T21:29:48.956Z,100527.91
2022-11-08T21:32:18.705Z,100527.91
2022-11-08T21:34:48.517Z,100524.73
2022-11-08T21:37:18.258Z,100517.53
2022-11-08T21:39:48.075Z,100528.66
2022-11-08T21:42:17.810Z,100534.36
2022-11-08T21:44:47.567Z,100534.63
2022-11-08T21:47:17.042Z,100532.13
2022-11-08T21:49:46.838Z,100536.11
2022-11-08T21:52:16.357Z,100536.98
2022-11-08T21:54:46.138Z,100519.55
2022-11-08T21:57:15.681Z,100519.55
2022-11-08T21:59:45.694Z,100538.61
2022-11-08T22:02:18.266Z,100540.03
2022-11-08T22:04:48.017Z,100540.03
2022-11-08T22:07:17.813Z,100537.15
2022-11-08T22:09:47.540Z,100541.91
2022-11-08T22:12:17.723Z,100540.74
2022-11-08T22:14:47.444Z,100548.72
2022-11-08T22:17:17.248Z,100546.81
2022-11-08T22:19:47.194Z,100554.89
2022-11-08T22:22:17.915Z,100551.91
2022-11-08T22:24:47.652Z,100551.91
2022-11-08T22:27:18.029Z,100544.06
2022-11-08T22:29:47.768Z,100543.50
2022-11-08T22:32:18.611Z,100523.56
2022-11-08T22:34:48.355Z,100523.56
2022-11-08T22:37:18.080Z,100542.13
2022-11-08T22:39:47.800Z,100559.27
2022-11-08T22:42:17.893Z,100559.27
2022-11-08T22:44:47.705Z,100558.19
2022-11-08T22:47:17.460Z,100555.37
2022-11-08T22:49:47.210Z,100547.86
2022-11-08T22:52:17.895Z,100546.73
2022-11-08T22:54:47.642Z,100549.89
2022-11-08T22:57:17.425Z,100546.83
2022-11-08T22:59:46.909Z,100541.22
2022-11-08T23:02:18.196Z,100539.03
2022-11-08T23:04:47.980Z,100542.45
2022-11-08T23:07:17.797Z,100538.25
2022-11-08T23:09:47.918Z,100544.41
2022-11-08T23:12:35.857Z,100543.33
2022-11-08T23:15:23.848Z,100545.84
2022-11-08T23:17:53.654Z,100542.06
2022-11-08T23:20:40.824Z,100547.80
2022-11-08T23:23:27.697Z,100546.05
2022-11-08T23:25:57.779Z,100537.42
2022-11-08T23:28:45.034Z,100535.87
2022-11-08T23:31:32.370Z,100534.50
2022-11-08T23:34:02.764Z,100533.79
2022-11-08T23:36:32.237Z,100535.88
2022-11-08T23:39:02.257Z,100543.27
2022-11-08T23:41:49.535Z,100543.27
2022-11-08T23:44:23.977Z,100534.80
2022-11-08T23:46:59.226Z,100534.80
2022-11-08T23:49:29.986Z,100534.80
2022-11-08T23:51:59.725Z,100539.45
2022-11-08T23:54:29.757Z,100536.63
2022-11-08T23:56:59.748Z,100539.86
2022-11-08T23:59:29.763Z,100542.95
